createdAt,value
2023-04-06T00:04:36.019Z,80.30
2023-04-06T00:09:34.836Z,80.53
2023-04-06T00:14:35.034Z,80.69
2023-04-06T00:19:40.188Z,79.86
2023-04-06T00:24:39.098Z,79.69
2023-04-06T00:29:39.837Z,80.59
2023-04-06T00:34:39.018Z,80.76
2023-04-06T00:39:37.837Z,80.26
2023-04-06T00:44:38.050Z,80.83
2023-04-06T00:49:37.226Z,80.91
2023-04-06T00:54:36.067Z,80.64
2023-04-06T00:59:36.046Z,80.74
2023-04-06T01:04:38.500Z,80.82
2023-04-06T01:09:42.208Z,81.73
2023-04-06T01:14:48.323Z,81.54
2023-04-06T01:19:50.443Z,80.85
2023-04-06T01:24:58.056Z,80.34
2023-04-06T01:30:25.932Z,80.15
2023-04-06T01:35:30.730Z,80.28
2023-04-06T01:40:44.857Z,80.15
2023-04-06T01:45:44.254Z,80.33
2023-04-06T01:50:48.590Z,79.00
2023-04-06T01:55:54.280Z,79.51
2023-04-06T02:01:01.530Z,78.88
2023-04-06T02:06:07.445Z,78.08
2023-04-06T02:11:12.409Z,77.82
2023-04-06T02:16:23.489Z,78.14
2023-04-06T02:21:22.414Z,79.18
2023-04-06T02:26:22.738Z,78.48
2023-04-06T02:31:21.813Z,78.77
2023-04-06T02:36:21.480Z,78.95
2023-04-06T02:41:20.538Z,79.54
2023-04-06T02:46:21.213Z,80.24
2023-04-06T02:51:20.141Z,79.09
2023-04-06T02:56:24.901Z,79.35
2023-04-06T03:01:28.953Z,79.42
2023-04-06T03:06:32.647Z,80.49
2023-04-06T03:11:41.092Z,79.89
2023-04-06T03:16:41.419Z,79.69
2023-04-06T03:21:41.199Z,79.57
2023-04-06T03:26:40.672Z,78.44
2023-04-06T03:31:42.222Z,79.33
2023-04-06T03:37:10.266Z,81.15
2023-04-06T03:42:16.440Z,80.27
2023-04-06T03:47:24.080Z,81.01
2023-04-06T03:52:27.286Z,81.06
2023-04-06T03:57:26.184Z,81.81
2023-04-06T04:02:26.538Z,81.00
2023-04-06T04:07:25.527Z,82.47
2023-04-06T04:12:24.429Z,82.07
2023-04-06T04:17:24.225Z,82.47
2023-04-06T04:22:24.625Z,84.36
2023-04-06T04:27:24.009Z,83.58
2023-04-06T04:32:24.524Z,82.97
2023-04-06T04:37:25.098Z,83.63
2023-04-06T04:42:28.173Z,84.01
2023-04-06T04:47:30.290Z,82.27
2023-04-06T04:52:31.214Z,82.51
2023-04-06T04:57:41.801Z,81.36
2023-04-06T05:02:41.664Z,80.81
2023-04-06T05:07:52.353Z,81.72
2023-04-06T05:13:01.519Z,82.34
2023-04-06T05:18:01.254Z,81.51
2023-04-06T05:23:06.346Z,81.72
2023-04-06T05:28:06.854Z,81.40
2023-04-06T05:33:08.822Z,80.36
2023-04-06T05:38:22.645Z,81.66
2023-04-06T05:43:23.292Z,82.08
2023-04-06T05:48:27.329Z,81.48
2023-04-06T05:53:30.082Z,81.37
2023-04-06T05:58:32.249Z,80.76
2023-04-06T06:03:32.443Z,79.96
2023-04-06T06:08:33.076Z,79.63
2023-04-06T06:13:35.096Z,79.41
2023-04-06T06:18:34.470Z,80.56
2023-04-06T06:23:35.225Z,80.42
2023-04-06T06:28:34.583Z,80.66
2023-04-06T06:33:33.794Z,80.42
2023-04-06T06:38:34.152Z,79.99
2023-04-06T06:43:33.273Z,79.21
2023-04-06T06:48:35.484Z,78.93
2023-04-06T06:53:35.848Z,78.08
2023-04-06T06:58:34.818Z,78.22
2023-04-06T07:03:33.721Z,78.60
2023-04-06T07:08:32.863Z,77.55
2023-04-06T07:13:33.655Z,76.63
2023-04-06T07:18:36.113Z,75.69
2023-04-06T07:23:36.610Z,75.77
2023-04-06T07:28:37.105Z,74.81
2023-04-06T07:33:36.651Z,73.77
2023-04-06T07:38:35.678Z,73.29
2023-04-06T07:43:36.094Z,73.24
2023-04-06T07:48:38.578Z,72.70
2023-04-06T07:53:38.358Z,73.35
2023-04-06T07:58:38.999Z,71.70
2023-04-06T08:03:38.443Z,72.08
2023-04-06T08:08:37.579Z,71.32
2023-04-06T08:13:36.536Z,70.78
2023-04-06T08:18:37.107Z,71.42
2023-04-06T08:23:36.076Z,70.74
2023-04-06T08:28:35.514Z,69.28
2023-04-06T08:33:37.720Z,68.56
2023-04-06T08:38:36.745Z,68.70
2023-04-06T08:43:38.855Z,66.19
2023-04-06T08:48:40.516Z,65.84
2023-04-06T08:53:39.792Z,65.40
2023-04-06T08:58:42.144Z,64.75
2023-04-06T09:03:44.533Z,63.84
2023-04-06T09:08:43.886Z,63.00
2023-04-06T09:13:50.817Z,61.95
2023-04-06T09:18:51.851Z,59.59
2023-04-06T09:24:00.909Z,59.91
2023-04-06T09:29:02.515Z,61.47
2023-04-06T09:34:03.403Z,62.33
2023-04-06T09:39:04.672Z,60.83
2023-04-06T09:44:07.854Z,60.91
2023-04-06T09:49:09.155Z,61.66
2023-04-06T09:54:09.570Z,61.56
2023-04-06T09:59:15.666Z,60.82
2023-04-06T10:04:31.297Z,60.69
2023-04-06T10:09:36.581Z,58.46
2023-04-06T10:14:37.966Z,59.50
2023-04-06T10:19:48.695Z,59.50
2023-04-06T10:24:47.680Z,57.85
2023-04-06T10:29:47.909Z,56.98
2023-04-06T10:34:48.511Z,54.74
2023-04-06T10:39:55.924Z,52.92
2023-04-06T10:44:54.990Z,51.54
2023-04-06T10:49:55.179Z,51.19
2023-04-06T10:54:55.945Z,49.39
2023-04-06T10:59:56.383Z,48.98
2023-04-06T11:05:00.652Z,50.49
2023-04-06T11:10:14.018Z,49.49
2023-04-06T11:15:15.838Z,50.68
2023-04-06T11:20:16.244Z,50.96
2023-04-06T11:25:17.482Z,51.27
2023-04-06T11:30:17.080Z,51.42
2023-04-06T11:35:24.318Z,51.12
2023-04-06T11:40:25.745Z,52.51
2023-04-06T11:45:25.129Z,51.16
2023-04-06T11:50:25.701Z,52.15
2023-04-06T11:55:24.627Z,51.27
2023-04-06T12:00:24.190Z,51.27
2023-04-06T12:05:22.963Z,49.69
2023-04-06T12:10:23.419Z,47.93
2023-04-06T12:15:28.139Z,45.16
2023-04-06T12:20:27.733Z,45.10
2023-04-06T12:25:28.334Z,43.29
2023-04-06T12:30:28.127Z,44.51
2023-04-06T12:35:27.208Z,44.57
2023-04-06T12:40:28.066Z,44.37
2023-04-06T12:45:28.369Z,43.74
2023-04-06T12:50:27.774Z,43.12
2023-04-06T12:55:31.632Z,43.48
2023-04-06T13:00:31.841Z,44.11
2023-04-06T13:05:32.391Z,43.34
2023-04-06T13:10:33.453Z,42.96
2023-04-06T13:15:33.254Z,43.75
2023-04-06T13:20:35.400Z,41.51
2023-04-06T13:25:35.785Z,39.47
2023-04-06T13:30:34.773Z,40.13
2023-04-06T13:35:33.673Z,40.36
2023-04-06T13:40:32.694Z,39.71
2023-04-06T13:45:33.092Z,38.45
2023-04-06T13:50:32.137Z,37.78
2023-04-06T13:55:32.298Z,38.18
2023-04-06T14:00:32.661Z,36.36
2023-04-06T14:05:33.802Z,35.97
2023-04-06T14:10:32.884Z,36.28
2023-04-06T14:15:33.176Z,38.10
2023-04-06T14:20:33.748Z,38.40
2023-04-06T14:25:35.884Z,38.87
2023-04-06T14:30:36.252Z,39.08
2023-04-06T14:35:35.001Z,38.58
2023-04-06T14:40:37.303Z,40.07
2023-04-06T14:45:37.904Z,40.49
2023-04-06T14:50:36.683Z,40.56
2023-04-06T14:55:35.563Z,40.36
2023-04-06T15:00:34.373Z,40.46
2023-04-06T15:05:36.180Z,39.72
2023-04-06T15:10:35.082Z,39.72
2023-04-06T15:15:33.958Z,39.53
2023-04-06T15:20:34.332Z,41.22
2023-04-06T15:25:35.837Z,41.06
2023-04-06T15:30:37.590Z,41.79
2023-04-06T15:35:41.138Z,42.88
2023-04-06T15:40:45.849Z,42.57
2023-04-06T15:45:45.170Z,43.03
2023-04-06T15:50:48.556Z,42.36
2023-04-06T15:55:47.490Z,43.14
2023-04-06T16:00:46.341Z,43.79
2023-04-06T16:05:59.189Z,44.16
2023-04-06T16:11:03.752Z,44.31
2023-04-06T16:16:04.061Z,44.81
2023-04-06T16:21:05.617Z,44.71
2023-04-06T16:26:13.092Z,45.34
2023-04-06T16:31:19.375Z,45.88
2023-04-06T16:36:25.121Z,45.80
2023-04-06T16:41:25.067Z,45.92
2023-04-06T16:46:24.407Z,45.73
2023-04-06T16:51:24.889Z,45.12
2023-04-06T16:56:23.627Z,44.70
2023-04-06T17:01:26.121Z,44.85
2023-04-06T17:06:27.170Z,45.26
2023-04-06T17:11:32.620Z,45.24
2023-04-06T17:16:38.649Z,45.31
2023-04-06T17:21:40.725Z,45.98
2023-04-06T17:26:40.541Z,45.80
2023-04-06T17:31:39.426Z,45.72
2023-04-06T17:36:39.484Z,45.64
2023-04-06T17:41:41.333Z,45.53
2023-04-06T17:46:40.215Z,45.98
2023-04-06T17:51:40.868Z,47.30
2023-04-06T17:56:42.430Z,46.99
2023-04-06T18:01:41.338Z,47.32
2023-04-06T18:06:41.789Z,47.94
2023-04-06T18:11:40.536Z,48.07
2023-04-06T18:16:40.977Z,47.51
2023-04-06T18:21:41.442Z,47.23
2023-04-06T18:26:40.334Z,47.39
2023-04-06T18:31:39.193Z,47.48
2023-04-06T18:36:43.606Z,48.42
2023-04-06T18:41:44.122Z,48.25
2023-04-06T18:46:47.129Z,48.90
2023-04-06T18:51:52.459Z,48.92
2023-04-06T18:56:54.464Z,49.45
2023-04-06T19:01:55.952Z,49.17
2023-04-06T19:06:57.972Z,49.21
2023-04-06T19:11:57.652Z,49.00
2023-04-06T19:16:58.306Z,48.58
2023-04-06T19:22:03.361Z,48.39
2023-04-06T19:27:03.854Z,48.84
2023-04-06T19:32:07.744Z,48.55
2023-04-06T19:37:08.804Z,48.47
2023-04-06T19:42:10.434Z,48.40
2023-04-06T19:47:11.944Z,48.93
2023-04-06T19:52:12.491Z,48.86
2023-04-06T19:57:12.119Z,49.52
2023-04-06T20:02:11.003Z,49.11
2023-04-06T20:07:11.223Z,48.83
2023-04-06T20:12:10.151Z,48.25
2023-04-06T20:17:09.095Z,48.97
2023-04-06T20:22:08.411Z,49.42
2023-04-06T20:27:08.469Z,49.87
2023-04-06T20:32:10.668Z,49.81
2023-04-06T20:37:09.829Z,50.13
2023-04-06T20:42:10.387Z,49.22
2023-04-06T20:47:09.170Z,49.35
2023-04-06T20:52:08.361Z,47.94
2023-04-06T20:57:07.109Z,48.26
2023-04-06T21:02:07.319Z,48.33
2023-04-06T21:07:06.725Z,48.75
2023-04-06T21:12:06.883Z,48.31
2023-04-06T21:17:07.786Z,48.05
2023-04-06T21:22:06.661Z,47.57
2023-04-06T21:27:05.402Z,47.47
2023-04-06T21:32:08.681Z,47.15
2023-04-06T21:37:07.534Z,47.36
2023-04-06T21:42:06.840Z,47.10
2023-04-06T21:47:05.755Z,47.10
2023-04-06T21:52:06.099Z,46.53
2023-04-06T21:57:04.977Z,46.70
2023-04-06T22:02:03.904Z,46.57
2023-04-06T22:07:02.734Z,46.64
2023-04-06T22:12:02.864Z,46.51
2023-04-06T22:17:01.809Z,46.62
2023-04-06T22:22:00.615Z,47.27
2023-04-06T22:26:59.537Z,46.92
2023-04-06T22:31:59.752Z,46.68
2023-04-06T22:36:58.546Z,46.73
2023-04-06T22:41:57.450Z,46.72
2023-04-06T22:46:56.458Z,47.30
2023-04-06T22:51:56.666Z,46.60
2023-04-06T22:56:56.065Z,47.05
2023-04-06T23:01:54.984Z,47.60
2023-04-06T23:06:53.767Z,47.77
2023-04-06T23:11:53.885Z,47.46
2023-04-06T23:16:52.759Z,48.51
2023-04-06T23:21:51.607Z,47.96
2023-04-06T23:26:50.385Z,48.66
2023-04-06T23:31:50.507Z,48.79
2023-04-06T23:36:49.283Z,48.99
2023-04-06T23:41:47.976Z,49.82
2023-04-06T23:46:46.947Z,49.32
2023-04-06T23:51:47.086Z,49.47
2023-04-06T23:56:46.334Z,50.02
